Dades meteomassalio
Diari Summary for Marc 6, 2017 Units:  English    Metric   Both
« Previous Day
Next Day »
Diari Semanal Mensual Anual Personalitzat
  Maxima: Minima: Mijana:
Temperatura: TemperatureC °F 8.1 °F 14 °F
Rosada: DewpointC °F 3.8 °F 7.5 °F
Humitat: Humidity % 39 % 67 %
Velocitat del vent: WindSpeedKMH mph 0.0 mph 21.6 mph
Racha vent: WindSpeedGustKMH mph - -
Vent:- - NW
Pressio: PressurehPa in 1018.8 in -
Pluja: 0.0 in    
Historical Graphs
 
 
Tabular Data for Marc 6, 2017
Time Temperature Dew Point Pressure Wind Wind Speed Wind Gust Humidity Rainfall Rate (Hourly) solar Conditions
TemperatureC °F DewpointC °F PressurehPa in Calm     Humidity % HourlyPrecipMM in SolarRadiationWatts/m^2 W/m2 Conditions
00:00 9.7 °F 7.8 °F 1020.5 in Calm     88 % 0.0 in 0.0 W/m2 CLR
00:05 9.7 °F 7.8 °F 1020.5 in Calm     88 % 0.0 in 0.0 W/m2 CLR
00:10 9.6 °F 7.7 °F 1020.5 in Calm     88 % 0.0 in 0.0 W/m2 CLR
00:15 9.6 °F 7.9 °F 1020.5 in Calm     89 % 0.0 in 0.0 W/m2 CLR
00:20 9.6 °F 7.9 °F 1020.5 in Calm     89 % 0.0 in 0.0 W/m2 CLR
00:25 9.6 °F 7.9 °F 1020.5 in Calm     89 % 0.0 in 0.0 W/m2 CLR
00:30 9.6 °F 7.8 °F 1020.5 in Calm     89 % 0.0 in 0.0 W/m2 CLR
00:35 9.6 °F 7.8 °F 1020.2 in Calm     89 % 0.0 in 0.0 W/m2 CLR
00:40 9.5 °F 7.8 °F 1020.2 in Calm     89 % 0.0 in 0.0 W/m2 CLR
00:45 9.4 °F 7.7 °F 1020.2 in Calm     89 % 0.0 in 0.0 W/m2 CLR
00:50 9.4 °F 7.7 °F 1020.2 in Calm     89 % 0.0 in 0.0 W/m2 CLR
00:55 9.4 °F 7.7 °F 1020.2 in Calm     89 % 0.0 in 0.0 W/m2 CLR
01:00 9.4 °F 7.7 °F 1020.2 in Calm     89 % 0.0 in 0.0 W/m2 CLR
01:05 9.3 °F 7.6 °F 1020.2 in Calm     89 % 0.0 in 0.0 W/m2 CLR
01:10 9.2 °F 7.5 °F 1020.2 in Calm     89 % 0.0 in 0.0 W/m2 CLR
01:15 9.2 °F 7.7 °F 1020.2 in Calm     90 % 0.0 in 0.0 W/m2 CLR
01:20 9.3 °F 7.7 °F 1019.9 in Calm     90 % 0.0 in 0.0 W/m2 CLR
01:25 9.3 °F 7.7 °F 1019.9 in Calm     90 % 0.0 in 0.0 W/m2 CLR
01:30 9.2 °F 7.7 °F 1019.9 in Calm     90 % 0.0 in 0.0 W/m2 CLR
01:35 9.2 °F 7.7 °F 1019.9 in Calm     90 % 0.0 in 0.0 W/m2 CLR
01:40 9.2 °F 7.7 °F 1019.9 in Calm     90 % 0.0 in 0.0 W/m2 CLR
01:45 9.2 °F 7.7 °F 1019.9 in Calm     90 % 0.0 in 0.0 W/m2 CLR
01:50 9.2 °F 7.7 °F 1019.9 in Calm     90 % 0.0 in 0.0 W/m2 CLR
01:55 9.2 °F 7.6 °F 1019.9 in Calm     90 % 0.0 in 0.0 W/m2 CLR
02:00 9.2 °F 7.8 °F 1019.9 in Calm     91 % 0.0 in 0.0 W/m2 CLR
02:05 9.3 °F 7.9 °F 1019.9 in Calm     91 % 0.0 in 0.0 W/m2 CLR
02:10 9.4 °F 7.8 °F 1019.5 in Calm     90 % 0.0 in 0.0 W/m2 CLR
02:15 9.4 °F 7.9 °F 1019.5 in Calm     90 % 0.0 in 0.0 W/m2 CLR
02:20 9.4 °F 7.9 °F 1019.5 in Calm     90 % 0.0 in 0.0 W/m2 CLR
02:25 9.4 °F 7.8 °F 1019.5 in Calm     90 % 0.0 in 0.0 W/m2 CLR
02:30 9.4 °F 7.8 °F 1019.5 in Calm     90 % 0.0 in 0.0 W/m2 CLR
02:35 9.4 °F 7.9 °F 1019.5 in Calm     90 % 0.0 in 0.0 W/m2 CLR
02:40 9.5 °F 7.9 °F 1019.5 in Calm     90 % 0.0 in 0.0 W/m2 CLR
02:45 9.6 °F 8.0 °F 1019.5 in Calm     90 % 0.0 in 0.0 W/m2 CLR
02:50 9.5 °F 7.9 °F 1019.5 in Calm     90 % 0.0 in 0.0 W/m2 CLR
02:55 9.4 °F 7.8 °F 1019.5 in Calm     90 % 0.0 in 0.0 W/m2 CLR
03:00 9.4 °F 7.9 °F 1019.5 in WSW 5.6 mph 5.6 mph 90 % 0.0 in 0.0 W/m2 CLR
03:05 9.7 °F 8.1 °F 1019.5 in Calm     90 % 0.0 in 0.0 W/m2 CLR
03:10 10.0 °F 8.4 °F 1019.5 in Calm     90 % 0.0 in 0.0 W/m2 CLR
03:15 10.2 °F 8.4 °F 1019.5 in Calm     89 % 0.0 in 0.0 W/m2 CLR
03:20 10.1 °F 8.2 °F 1019.5 in Calm     88 % 0.0 in 0.0 W/m2 CLR
03:25 10.1 °F 8.2 °F 1019.2 in Calm     88 % 0.0 in 0.0 W/m2 CLR
03:30 9.9 °F 8.1 °F 1019.2 in Calm     88 % 0.0 in 0.0 W/m2 CLR
03:35 9.9 °F 8.0 °F 1019.2 in Calm     88 % 0.0 in 0.0 W/m2 CLR
03:40 9.8 °F 7.9 °F 1019.2 in Calm     88 % 0.0 in 0.0 W/m2 CLR
03:45 9.9 °F 8.2 °F 1019.2 in Calm     89 % 0.0 in 0.0 W/m2 CLR
03:50 10.1 °F 8.2 °F 1019.2 in Calm     88 % 0.0 in 0.0 W/m2 CLR
03:56 10.0 °F 8.1 °F 1018.8 in WSW 7.4 mph 7.4 mph 88 % 0.0 in 0.0 W/m2 CLR
04:01 9.8 °F 7.7 °F 1018.8 in WSW 5.6 mph 5.6 mph 87 % 0.0 in 0.0 W/m2 CLR
04:06 9.8 °F 7.9 °F 1018.8 in Calm     88 % 0.0 in 0.0 W/m2 CLR
04:11 10.2 °F 8.3 °F 1018.8 in Calm     88 % 0.0 in 0.0 W/m2 CLR
04:16 10.4 °F 8.4 °F 1018.8 in Calm     87 % 0.0 in 0.0 W/m2 CLR
04:21 10.5 °F 8.3 °F 1018.8 in Calm     86 % 0.0 in 0.0 W/m2 CLR
04:26 10.4 °F 8.2 °F 1018.8 in Calm     86 % 0.0 in 0.0 W/m2 CLR
04:31 10.4 °F 8.2 °F 1018.8 in Calm     86 % 0.0 in 0.0 W/m2 CLR
04:36 10.6 °F 8.4 °F 1018.8 in WSW 6.4 mph 6.4 mph 86 % 0.0 in 0.0 W/m2 CLR
04:41 10.7 °F 8.3 °F 1018.8 in WSW 5.6 mph 5.6 mph 85 % 0.0 in 0.0 W/m2 CLR
04:46 10.3 °F 7.7 °F 1018.8 in WSW 5.6 mph 5.6 mph 84 % 0.0 in 0.0 W/m2 CLR
04:51 9.8 °F 7.4 °F 1018.8 in SW 5.6 mph 5.6 mph 85 % 0.0 in 0.0 W/m2 CLR
04:56 9.3 °F 7.1 °F 1018.8 in Calm     86 % 0.0 in 0.0 W/m2 CLR
05:01 9.2 °F 7.2 °F 1018.8 in Calm     87 % 0.0 in 0.0 W/m2 CLR
05:06 9.0 °F 7.1 °F 1018.8 in Calm     88 % 0.0 in 0.0 W/m2 CLR
05:11 8.8 °F 6.9 °F 1018.8 in Calm     88 % 0.0 in 0.0 W/m2 CLR
05:16 8.9 °F 7.2 °F 1018.8 in Calm     89 % 0.0 in 0.0 W/m2 CLR
05:21 9.1 °F 7.3 °F 1018.8 in Calm     89 % 0.0 in 0.0 W/m2 CLR
05:26 8.9 °F 7.1 °F 1018.8 in Calm     88 % 0.0 in 0.0 W/m2 CLR
05:31 8.8 °F 6.9 °F 1018.8 in Calm     88 % 0.0 in 0.0 W/m2 CLR
05:36 8.7 °F 7.0 °F 1018.8 in Calm     89 % 0.0 in 0.0 W/m2 CLR
05:41 8.8 °F 7.1 °F 1018.8 in Calm     89 % 0.0 in 0.0 W/m2 CLR
05:46 8.8 °F 7.1 °F 1018.8 in Calm     89 % 0.0 in 0.0 W/m2 CLR
05:51 8.8 °F 7.1 °F 1018.8 in Calm     89 % 0.0 in 0.0 W/m2 CLR
05:56 8.8 °F 7.1 °F 1018.8 in Calm     89 % 0.0 in 0.0 W/m2 CLR
06:01 9.0 °F 7.1 °F 1018.8 in Calm     88 % 0.0 in 0.0 W/m2 CLR
06:06 9.1 °F 7.3 °F 1018.8 in Calm     89 % 0.0 in 0.0 W/m2 CLR
06:11 9.1 °F 7.2 °F 1018.8 in Calm     88 % 0.0 in 0.0 W/m2 CLR
06:16 9.1 °F 7.1 °F 1018.8 in Calm     87 % 0.0 in 0.0 W/m2 CLR
06:21 9.1 °F 7.1 °F 1018.8 in Calm     87 % 0.0 in 0.0 W/m2 CLR
06:26 9.2 °F 7.1 °F 1018.8 in Calm     87 % 0.0 in 0.0 W/m2 CLR
06:31 8.8 °F 6.6 °F 1018.8 in Calm     86 % 0.0 in 0.0 W/m2 CLR
06:36 8.6 °F 6.5 °F 1018.8 in Calm     87 % 0.0 in 0.0 W/m2 CLR
06:41 8.4 °F 6.6 °F 1019.2 in Calm     88 % 0.0 in 0.0 W/m2 CLR
06:46 8.4 °F 6.5 °F 1019.2 in Calm     88 % 0.0 in 0.0 W/m2 CLR
06:51 8.4 °F 6.7 °F 1019.2 in Calm     89 % 0.0 in 0.0 W/m2 CLR
06:56 8.4 °F 6.7 °F 1019.2 in Calm     89 % 0.0 in 0.0 W/m2 CLR
07:01 8.2 °F 6.3 °F 1019.2 in Calm     88 % 0.0 in 0.0 W/m2 CLR
07:06 8.1 °F 6.2 °F 1019.2 in Calm     88 % 0.0 in 0.0 W/m2 CLR
07:11 8.1 °F 6.4 °F 1019.2 in Calm     89 % 0.0 in 0.0 W/m2 CLR
07:16 8.6 °F 7.1 °F 1019.2 in WNW 8.0 mph 8.0 mph 90 % 0.0 in 0.0 W/m2 OVC
07:21 9.7 °F 7.8 °F 1019.2 in West 7.4 mph 7.4 mph 88 % 0.0 in 0.0 W/m2 OVC
07:26 10.6 °F 7.8 °F 1018.8 in West 12.9 mph 12.9 mph 83 % 0.0 in 0.0 W/m2 OVC
07:31 11.1 °F 7.9 °F 1019.2 in WNW 11.1 mph 11.1 mph 81 % 0.0 in 5.0 W/m2 OVC
07:36 11.7 °F 8.2 °F 1019.2 in West 11.1 mph 11.1 mph 79 % 0.0 in 14.0 W/m2 BKN
07:41 12.2 °F 8.3 °F 1019.2 in WNW 16.7 mph 16.7 mph 77 % 0.0 in 23.0 W/m2 BKN
07:46 12.3 °F 8.4 °F 1019.2 in WNW 18.5 mph 18.5 mph 77 % 0.0 in 28.0 W/m2 BKN
07:51 12.6 °F 8.4 °F 1019.2 in WNW 18.5 mph 18.5 mph 76 % 0.0 in 33.0 W/m2 BKN
07:56 12.8 °F 8.5 °F 1019.2 in WNW 9.7 mph 9.7 mph 75 % 0.0 in 42.0 W/m2 BKN
08:01 13.0 °F 8.4 °F 1019.2 in NW 9.7 mph 9.7 mph 74 % 0.0 in 51.0 W/m2 SCT
08:06 13.1 °F 8.6 °F 1018.8 in WNW 11.1 mph 11.1 mph 74 % 0.0 in 58.0 W/m2 SCT
08:11 13.3 °F 8.6 °F 1018.8 in WNW 22.2 mph 22.2 mph 73 % 0.0 in 77.0 W/m2 FEW
08:16 13.6 °F 8.8 °F 1018.8 in WNW 22.2 mph 22.2 mph 73 % 0.0 in 91.0 W/m2 CLR
08:21 13.7 °F 8.8 °F 1018.8 in WNW 27.4 mph 27.4 mph 72 % 0.0 in 109.0 W/m2 CLR
08:26 13.9 °F 8.8 °F 1019.2 in WNW 25.9 mph 25.9 mph 71 % 0.0 in 113.0 W/m2 CLR
08:31 14.1 °F 8.7 °F 1018.8 in NW 20.4 mph 20.4 mph 70 % 0.0 in 111.0 W/m2 CLR
08:36 14.3 °F 8.9 °F 1019.2 in WNW 22.2 mph 22.2 mph 70 % 0.0 in 125.0 W/m2 CLR
08:41 14.3 °F 8.9 °F 1019.2 in WNW 16.7 mph 16.7 mph 70 % 0.0 in 134.0 W/m2 CLR
08:46 14.5 °F 9.1 °F 1019.2 in NW 18.5 mph 18.5 mph 70 % 0.0 in 149.0 W/m2 CLR
08:51 14.6 °F 9.0 °F 1019.2 in WNW 20.4 mph 20.4 mph 69 % 0.0 in 167.0 W/m2 CLR
08:56 14.7 °F 9.1 °F 1019.5 in West 18.5 mph 18.5 mph 69 % 0.0 in 181.0 W/m2 CLR
09:01 14.8 °F 9.2 °F 1019.2 in WNW 19.3 mph 19.3 mph 69 % 0.0 in 192.0 W/m2 CLR
09:06 14.8 °F 9.0 °F 1019.2 in WNW 18.5 mph 18.5 mph 68 % 0.0 in 193.0 W/m2 CLR
09:11 14.9 °F 9.1 °F 1019.2 in WNW 20.4 mph 20.4 mph 68 % 0.0 in 193.0 W/m2 CLR
09:16 15.0 °F 9.1 °F 1019.2 in WNW 22.2 mph 22.2 mph 68 % 0.0 in 204.0 W/m2 CLR
09:21 15.1 °F 9.2 °F 1019.2 in NW 31.5 mph 31.5 mph 68 % 0.0 in 227.0 W/m2 CLR
09:26 15.2 °F 9.3 °F 1019.5 in NW 24.1 mph 24.1 mph 68 % 0.0 in 183.0 W/m2 CLR
09:31 15.2 °F 9.3 °F 1019.5 in NW 25.9 mph 25.9 mph 68 % 0.0 in 202.0 W/m2 CLR
09:36 15.2 °F 9.1 °F 1019.2 in WNW 29.6 mph 29.6 mph 67 % 0.0 in 244.0 W/m2 CLR
09:41 15.2 °F 9.1 °F 1019.2 in NW 40.7 mph 40.7 mph 67 % 0.0 in 160.0 W/m2 CLR
09:46 15.2 °F 9.3 °F 1019.2 in WNW 25.9 mph 25.9 mph 68 % 0.0 in 255.0 W/m2 CLR
09:51 15.4 °F 9.3 °F 1019.5 in WNW 33.3 mph 33.3 mph 67 % 0.0 in 278.0 W/m2 CLR
09:56 15.6 °F 9.4 °F 1019.2 in NW 38.9 mph 38.9 mph 67 % 0.0 in 376.0 W/m2 CLR
10:01 15.8 °F 9.2 °F 1019.5 in NW 42.6 mph 42.6 mph 65 % 0.0 in 348.0 W/m2 CLR
10:06 15.9 °F 9.4 °F 1019.5 in NW 44.4 mph 44.4 mph 65 % 0.0 in 373.0 W/m2 CLR
10:11 16.1 °F 9.5 °F 1019.5 in NW 46.3 mph 46.3 mph 65 % 0.0 in 457.0 W/m2 CLR
10:16 16.2 °F 9.4 °F 1019.5 in NW 35.2 mph 35.2 mph 64 % 0.0 in 406.0 W/m2 CLR
10:21 16.4 °F 9.6 °F 1019.5 in WNW 38.9 mph 38.9 mph 64 % 0.0 in 487.0 W/m2 CLR
10:26 16.5 °F 9.4 °F 1019.5 in NW 42.6 mph 42.6 mph 63 % 0.0 in 439.0 W/m2 CLR
10:31 16.6 °F 9.8 °F 1019.2 in NW 35.2 mph 35.2 mph 64 % 0.0 in 425.0 W/m2 CLR
10:37 16.8 °F 9.7 °F 1019.5 in NW 42.6 mph 42.6 mph 63 % 0.0 in 490.0 W/m2 CLR
10:42 16.9 °F 9.8 °F 1019.5 in NW 42.6 mph 42.6 mph 63 % 0.0 in 489.0 W/m2 CLR
10:47 17.0 °F 9.7 °F 1019.5 in NW 42.6 mph 42.6 mph 62 % 0.0 in 455.0 W/m2 CLR
10:52 17.2 °F 9.8 °F 1019.5 in NW 33.8 mph 33.8 mph 62 % 0.0 in 468.0 W/m2 CLR
10:57 17.3 °F 9.7 °F 1019.9 in WNW 46.3 mph 46.3 mph 61 % 0.0 in 418.0 W/m2 CLR
11:02 17.5 °F 9.9 °F 1019.9 in WNW 35.4 mph 35.4 mph 61 % 0.0 in 527.0 W/m2 CLR
11:07 17.5 °F 9.7 °F 1019.9 in NW 46.7 mph 46.7 mph 60 % 0.0 in 580.0 W/m2 CLR
11:12 17.7 °F 10.1 °F 1019.9 in NNW 41.8 mph 41.8 mph 61 % 0.0 in 573.0 W/m2 CLR
11:17 17.7 °F 9.8 °F 1019.9 in NW 50.0 mph 50.0 mph 60 % 0.0 in 585.0 W/m2 CLR
11:22 17.8 °F 9.7 °F 1019.9 in NW 44.4 mph 44.4 mph 59 % 0.0 in 584.0 W/m2 CLR
11:27 17.8 °F 9.7 °F 1019.9 in NW 46.3 mph 46.3 mph 59 % 0.0 in 580.0 W/m2 CLR
11:32 17.8 °F 9.9 °F 1020.2 in NW 46.3 mph 46.3 mph 60 % 0.0 in 589.0 W/m2 CLR
11:37 17.8 °F 9.9 °F 1019.9 in NNW 41.8 mph 41.8 mph 60 % 0.0 in 622.0 W/m2 CLR
11:42 18.1 °F 10.2 °F 1019.9 in WNW 37.0 mph 37.0 mph 60 % 0.0 in 598.0 W/m2 CLR
11:47 18.1 °F 9.9 °F 1019.9 in WNW 48.1 mph 48.1 mph 59 % 0.0 in 619.0 W/m2 CLR
11:52 18.3 °F 10.4 °F 1019.9 in NW 31.5 mph 31.5 mph 60 % 0.0 in 652.0 W/m2 CLR
11:57 18.3 °F 10.2 °F 1019.9 in NW 48.1 mph 48.1 mph 59 % 0.0 in 650.0 W/m2 CLR
12:02 18.4 °F 10.0 °F 1019.9 in NW 40.2 mph 40.2 mph 58 % 0.0 in 661.0 W/m2 CLR
12:07 18.5 °F 10.1 °F 1019.9 in NW 41.8 mph 41.8 mph 58 % 0.0 in 647.0 W/m2 CLR
12:12 18.6 °F 10.2 °F 1019.9 in NW 50.0 mph 50.0 mph 58 % 0.0 in 652.0 W/m2 CLR
12:17 18.6 °F 10.2 °F 1019.9 in WNW 46.3 mph 46.3 mph 58 % 0.0 in 673.0 W/m2 CLR
12:22 18.8 °F 10.3 °F 1019.9 in WNW 33.3 mph 33.3 mph 58 % 0.0 in 673.0 W/m2 CLR
12:28 18.9 °F 10.2 °F 1019.9 in NW 42.6 mph 42.6 mph 57 % 0.0 in 680.0 W/m2 CLR
12:33 19.1 °F 10.9 °F 1020.2 in NW 48.1 mph 48.1 mph 59 % 0.0 in 679.0 W/m2 CLR
12:38 18.9 °F 11.0 °F 1019.9 in NNW 38.9 mph 38.9 mph 60 % 0.0 in 689.0 W/m2 CLR
12:43 18.9 °F 10.5 °F 1020.2 in NW 42.6 mph 42.6 mph 58 % 0.0 in 687.0 W/m2 CLR
12:48 18.9 °F 9.9 °F 1020.2 in NW 51.8 mph 51.8 mph 56 % 0.0 in 701.0 W/m2 CLR
12:53 18.9 °F 9.9 °F 1020.2 in NNW 55.5 mph 55.5 mph 56 % 0.0 in 705.0 W/m2 CLR
12:58 18.8 °F 10.1 °F 1019.9 in NW 38.6 mph 38.6 mph 57 % 0.0 in 703.0 W/m2 CLR
13:03 19.2 °F 10.8 °F 1020.5 in NNW 44.4 mph 44.4 mph 58 % 0.0 in 686.0 W/m2 CLR
13:08 19.1 °F 10.4 °F 1020.2 in NW 61.1 mph 61.1 mph 57 % 0.0 in 737.0 W/m2 CLR
13:13 19.1 °F 10.3 °F 1020.5 in NW 53.7 mph 53.7 mph 57 % 0.0 in 773.0 W/m2 CLR
13:18 18.9 °F 10.5 °F 1019.9 in NW 37.0 mph 37.0 mph 58 % 0.0 in 279.0 W/m2 CLR
13:23 19.1 °F 10.6 °F 1019.9 in NNW 42.6 mph 42.6 mph 58 % 0.0 in 745.0 W/m2 CLR
13:28 19.2 °F 11.3 °F 1019.9 in NW 27.8 mph 27.8 mph 60 % 0.0 in 758.0 W/m2 CLR
13:33 19.4 °F 10.4 °F 1019.9 in WNW 35.2 mph 35.2 mph 56 % 0.0 in 724.0 W/m2 CLR
13:38 19.2 °F 10.5 °F 1019.9 in NNW 40.7 mph 40.7 mph 57 % 0.0 in 148.0 W/m2 CLR
13:43 19.3 °F 10.8 °F 1019.9 in NW 42.6 mph 42.6 mph 58 % 0.0 in 686.0 W/m2 CLR
13:48 19.2 °F 10.2 °F 1020.2 in NW 37.0 mph 37.0 mph 56 % 0.0 in 98.0 W/m2 CLR
13:53 18.9 °F 10.2 °F 1019.9 in NNW 40.2 mph 40.2 mph 57 % 0.0 in 700.0 W/m2 CLR
13:58 19.2 °F 10.4 °F 1019.9 in NW 40.7 mph 40.7 mph 57 % 0.0 in 738.0 W/m2 CLR
14:03 19.6 °F 10.8 °F 1020.2 in NW 42.6 mph 42.6 mph 57 % 0.0 in 789.0 W/m2 CLR
14:08 19.7 °F 10.4 °F 1020.2 in NW 33.3 mph 33.3 mph 55 % 0.0 in 766.0 W/m2 CLR
14:13 19.7 °F 9.9 °F 1019.9 in NW 55.5 mph 55.5 mph 53 % 0.0 in 809.0 W/m2 CLR
14:18 19.8 °F 10.5 °F 1020.2 in NNW 49.9 mph 49.9 mph 55 % 0.0 in 789.0 W/m2 CLR
14:23 19.7 °F 10.1 °F 1020.5 in NNW 40.7 mph 40.7 mph 54 % 0.0 in 751.0 W/m2 CLR
14:28 19.4 °F 9.9 °F 1020.2 in NNW 42.6 mph 42.6 mph 54 % 0.0 in 642.0 W/m2 CLR
14:33 19.3 °F 9.2 °F 1020.2 in NNW 57.4 mph 57.4 mph 52 % 0.0 in 274.0 W/m2 CLR
14:38 19.2 °F 9.6 °F 1020.2 in NNW 44.4 mph 44.4 mph 54 % 0.0 in 652.0 W/m2 CLR
14:43 19.2 °F 9.6 °F 1020.2 in NW 44.4 mph 44.4 mph 54 % 0.0 in 599.0 W/m2 CLR
14:48 19.4 °F 9.0 °F 1020.5 in NNW 57.4 mph 57.4 mph 51 % 0.0 in 534.0 W/m2 CLR
14:53 19.4 °F 9.8 °F 1020.5 in NNW 38.9 mph 38.9 mph 54 % 0.0 in 640.0 W/m2 CLR
14:58 19.4 °F 10.1 °F 1020.5 in WNW 32.2 mph 32.2 mph 55 % 0.0 in 563.0 W/m2 CLR
15:03 19.6 °F 10.1 °F 1020.5 in NNW 33.8 mph 33.8 mph 54 % 0.0 in 506.0 W/m2 CLR
15:08 19.6 °F 8.9 °F 1020.2 in NW 46.3 mph 46.3 mph 50 % 0.0 in 524.0 W/m2 CLR
15:13 19.5 °F 9.1 °F 1020.5 in NW 42.6 mph 42.6 mph 51 % 0.0 in 497.0 W/m2 CLR
15:18 19.4 °F 9.6 °F 1020.2 in NNW 37.0 mph 37.0 mph 53 % 0.0 in 489.0 W/m2 CLR
15:23 19.4 °F 9.3 °F 1020.2 in NW 44.4 mph 44.4 mph 52 % 0.0 in 406.0 W/m2 CLR
15:28 19.2 °F 9.1 °F 1020.5 in NNW 45.1 mph 45.1 mph 52 % 0.0 in 446.0 W/m2 CLR
15:33 19.3 °F 9.5 °F 1020.5 in North 37.0 mph 37.0 mph 53 % 0.0 in 489.0 W/m2 CLR
15:38 19.5 °F 9.7 °F 1020.5 in NNW 33.3 mph 33.3 mph 53 % 0.0 in 429.0 W/m2 CLR
15:43 19.4 °F 9.3 °F 1020.5 in NNW 31.5 mph 31.5 mph 52 % 0.0 in 413.0 W/m2 CLR
15:48 19.3 °F 9.8 °F 1020.5 in North 25.9 mph 25.9 mph 54 % 0.0 in 218.0 W/m2 CLR
15:53 19.3 °F 8.6 °F 1020.9 in NNW 38.9 mph 38.9 mph 50 % 0.0 in 450.0 W/m2 CLR
15:58 19.3 °F 8.3 °F 1020.9 in NNW 32.2 mph 32.2 mph 49 % 0.0 in 332.0 W/m2 CLR
16:03 19.4 °F 8.2 °F 1020.9 in NNW 38.6 mph 38.6 mph 48 % 0.0 in 455.0 W/m2 CLR
16:08 19.6 °F 7.7 °F 1021.2 in NNW 38.9 mph 38.9 mph 46 % 0.0 in 445.0 W/m2 CLR
16:13 19.5 °F 7.2 °F 1020.9 in NNW 44.4 mph 44.4 mph 45 % 0.0 in 446.0 W/m2 CLR
16:18 19.5 °F 6.9 °F 1020.9 in NNW 40.7 mph 40.7 mph 44 % 0.0 in 420.0 W/m2 CLR
16:23 19.4 °F 6.9 °F 1020.9 in NNW 48.1 mph 48.1 mph 44 % 0.0 in 330.0 W/m2 CLR
16:28 19.4 °F 7.4 °F 1020.9 in NNW 40.2 mph 40.2 mph 46 % 0.0 in 394.0 W/m2 CLR
16:33 19.4 °F 7.2 °F 1020.9 in NNW 43.4 mph 43.4 mph 45 % 0.0 in 410.0 W/m2 CLR
16:38 19.4 °F 7.2 °F 1021.2 in NNW 31.5 mph 31.5 mph 45 % 0.0 in 339.0 W/m2 CLR
16:43 19.5 °F 7.2 °F 1020.9 in NNW 37.0 mph 37.0 mph 45 % 0.0 in 346.0 W/m2 CLR
16:48 19.4 °F 7.2 °F 1021.2 in NNW 37.0 mph 37.0 mph 45 % 0.0 in 285.0 W/m2 CLR
16:53 19.3 °F 6.7 °F 1021.2 in NNW 46.3 mph 46.3 mph 44 % 0.0 in 223.0 W/m2 CLR
16:58 19.3 °F 7.1 °F 1021.2 in NNW 40.7 mph 40.7 mph 45 % 0.0 in 366.0 W/m2 CLR
17:03 19.4 °F 6.5 °F 1021.2 in NW 35.2 mph 35.2 mph 43 % 0.0 in 279.0 W/m2 CLR
17:08 19.3 °F 6.1 °F 1021.6 in NNW 38.9 mph 38.9 mph 42 % 0.0 in 257.0 W/m2 CLR
17:13 19.3 °F 6.1 °F 1021.2 in NW 30.6 mph 30.6 mph 42 % 0.0 in 272.0 W/m2 CLR
17:18 19.3 °F 6.4 °F 1021.6 in NNW 38.9 mph 38.9 mph 43 % 0.0 in 267.0 W/m2 CLR
17:23 19.2 °F 6.7 °F 1021.6 in NW 32.2 mph 32.2 mph 44 % 0.0 in 220.0 W/m2 CLR
17:28 19.2 °F 6.9 °F 1021.2 in NNW 29.6 mph 29.6 mph 45 % 0.0 in 221.0 W/m2 CLR
17:33 19.1 °F 7.5 °F 1021.6 in NNW 25.9 mph 25.9 mph 47 % 0.0 in 197.0 W/m2 CLR
17:38 18.9 °F 7.4 °F 1021.6 in NNW 24.1 mph 24.1 mph 47 % 0.0 in 185.0 W/m2 CLR
17:43 19.0 °F 7.7 °F 1021.6 in NW 24.1 mph 24.1 mph 48 % 0.0 in 167.0 W/m2 CLR
17:48 18.9 °F 8.0 °F 1021.6 in NNW 24.1 mph 24.1 mph 49 % 0.0 in 155.0 W/m2 CLR
17:53 18.9 °F 7.9 °F 1021.6 in North 33.3 mph 33.3 mph 49 % 0.0 in 132.0 W/m2 CLR
17:58 18.8 °F 7.8 °F 1021.6 in WNW 27.8 mph 27.8 mph 49 % 0.0 in 113.0 W/m2 CLR
18:03 18.7 °F 5.5 °F 1021.2 in North 38.9 mph 38.9 mph 42 % 0.0 in 81.0 W/m2 CLR
18:08 18.6 °F 5.1 °F 1021.6 in NW 33.3 mph 33.3 mph 41 % 0.0 in 72.0 W/m2 FEW
18:13 18.4 °F 4.6 °F 1021.6 in NW 29.6 mph 29.6 mph 40 % 0.0 in 58.0 W/m2 SCT
18:18 18.3 °F 4.1 °F 1021.6 in NW 33.3 mph 33.3 mph 39 % 0.0 in 46.0 W/m2 SCT
18:23 18.2 °F 4.0 °F 1021.6 in NNW 29.6 mph 29.6 mph 39 % 0.0 in 35.0 W/m2 BKN
18:28 18.0 °F 3.8 °F 1021.6 in North 27.8 mph 27.8 mph 39 % 0.0 in 21.0 W/m2 BKN
18:33 17.8 °F 4.0 °F 1021.9 in NW 25.9 mph 25.9 mph 40 % 0.0 in 12.0 W/m2 BKN
18:38 17.6 °F 4.2 °F 1021.9 in NNW 29.6 mph 29.6 mph 41 % 0.0 in 9.0 W/m2 BKN
18:43 17.4 °F 4.0 °F 1021.9 in NNW 18.5 mph 18.5 mph 41 % 0.0 in 7.0 W/m2 BKN
18:48 17.2 °F 4.8 °F 1022.2 in NNW 24.1 mph 24.1 mph 44 % 0.0 in 5.0 W/m2 OVC
18:53 16.9 °F 5.2 °F 1022.2 in North 29.6 mph 29.6 mph 46 % 0.0 in 0.0 W/m2 OVC
18:58 16.7 °F 5.3 °F 1022.6 in NNW 18.5 mph 18.5 mph 47 % 0.0 in 0.0 W/m2 OVC
19:03 16.4 °F 5.3 °F 1022.2 in NNW 24.1 mph 24.1 mph 48 % 0.0 in 0.0 W/m2 CLR
19:04 16.4 °F 5.4 °F 1022.2 in NNW 20.4 mph 20.4 mph 48 % 0.0 in 0.0 W/m2 CLR
19:09 16.3 °F 5.2 °F 1022.6 in NNW 27.4 mph 27.4 mph 48 % 0.0 in 0.0 W/m2 CLR
19:14 16.2 °F 5.2 °F 1022.6 in North 29.0 mph 29.0 mph 48 % 0.0 in 0.0 W/m2 CLR
19:19 16.1 °F 5.1 °F 1022.6 in NNW 25.7 mph 25.7 mph 48 % 0.0 in 0.0 W/m2 CLR
19:24 15.9 °F 4.9 °F 1022.6 in NNW 29.6 mph 29.6 mph 48 % 0.0 in 0.0 W/m2 CLR
19:29 15.8 °F 4.8 °F 1022.6 in NNW 29.6 mph 29.6 mph 48 % 0.0 in 0.0 W/m2 CLR
19:34 15.6 °F 4.9 °F 1022.6 in North 19.3 mph 19.3 mph 49 % 0.0 in 0.0 W/m2 CLR
19:39 15.3 °F 4.7 °F 1022.6 in NNW 29.6 mph 29.6 mph 49 % 0.0 in 0.0 W/m2 CLR
19:44 15.3 °F 4.6 °F 1022.9 in NNW 38.9 mph 38.9 mph 49 % 0.0 in 0.0 W/m2 CLR
19:49 15.3 °F 4.6 °F 1022.9 in NNW 25.9 mph 25.9 mph 49 % 0.0 in 0.0 W/m2 CLR
19:54 15.1 °F 4.4 °F 1022.9 in NNW 24.1 mph 24.1 mph 49 % 0.0 in 0.0 W/m2 CLR
19:59 14.9 °F 4.6 °F 1022.9 in NNW 25.9 mph 25.9 mph 50 % 0.0 in 0.0 W/m2 CLR
20:04 14.8 °F 4.4 °F 1022.9 in NNW 18.5 mph 18.5 mph 50 % 0.0 in 0.0 W/m2 CLR
20:09 14.6 °F 4.6 °F 1023.2 in NNW 18.5 mph 18.5 mph 51 % 0.0 in 0.0 W/m2 CLR
20:14 14.5 °F 4.5 °F 1023.2 in NNW 29.0 mph 29.0 mph 51 % 0.0 in 0.0 W/m2 CLR
20:19 14.4 °F 4.2 °F 1023.2 in NNW 25.9 mph 25.9 mph 50 % 0.0 in 0.0 W/m2 CLR
20:24 14.3 °F 4.3 °F 1023.2 in NW 25.9 mph 25.9 mph 51 % 0.0 in 0.0 W/m2 CLR
20:29 14.1 °F 4.4 °F 1023.2 in WNW 22.2 mph 22.2 mph 52 % 0.0 in 0.0 W/m2 CLR
20:34 13.9 °F 4.4 °F 1023.6 in WNW 25.7 mph 25.7 mph 53 % 0.0 in 0.0 W/m2 CLR
20:39 13.8 °F 4.4 °F 1023.6 in NNW 24.1 mph 24.1 mph 53 % 0.0 in 0.0 W/m2 CLR
20:44 13.6 °F 4.7 °F 1023.9 in WNW 18.5 mph 18.5 mph 55 % 0.0 in 0.0 W/m2 CLR
20:49 13.5 °F 4.6 °F 1023.9 in WNW 18.5 mph 18.5 mph 55 % 0.0 in 0.0 W/m2 CLR
20:54 13.4 °F 4.8 °F 1023.9 in NW 24.1 mph 24.1 mph 56 % 0.0 in 0.0 W/m2 CLR
20:59 13.4 °F 5.1 °F 1023.9 in NW 25.7 mph 25.7 mph 57 % 0.0 in 0.0 W/m2 CLR
21:04 13.6 °F 4.9 °F 1023.9 in NNW 27.8 mph 27.8 mph 56 % 0.0 in 0.0 W/m2 CLR
21:09 13.4 °F 5.1 °F 1024.3 in NW 14.8 mph 14.8 mph 57 % 0.0 in 0.0 W/m2 CLR
21:14 13.2 °F 5.1 °F 1024.3 in NNW 14.8 mph 14.8 mph 58 % 0.0 in 0.0 W/m2 CLR
21:19 13.1 °F 5.2 °F 1024.3 in NW 18.5 mph 18.5 mph 59 % 0.0 in 0.0 W/m2 CLR
21:24 12.8 °F 5.0 °F 1024.3 in NW 25.9 mph 25.9 mph 59 % 0.0 in 0.0 W/m2 CLR
21:29 12.7 °F 4.7 °F 1024.3 in NW 20.4 mph 20.4 mph 58 % 0.0 in 0.0 W/m2 CLR
21:34 12.7 °F 4.9 °F 1024.3 in NNW 18.5 mph 18.5 mph 59 % 0.0 in 0.0 W/m2 CLR
21:40 12.6 °F 5.0 °F 1024.3 in NW 20.4 mph 20.4 mph 60 % 0.0 in 0.0 W/m2 CLR
21:45 12.4 °F 4.7 °F 1024.3 in NNW 22.2 mph 22.2 mph 59 % 0.0 in 0.0 W/m2 CLR
21:50 12.5 °F 4.7 °F 1024.3 in NNW 27.8 mph 27.8 mph 59 % 0.0 in 0.0 W/m2 CLR
21:55 12.5 °F 4.7 °F 1024.3 in NW 20.9 mph 20.9 mph 59 % 0.0 in 0.0 W/m2 CLR
22:00 12.4 °F 4.8 °F 1024.6 in NNW 18.5 mph 18.5 mph 60 % 0.0 in 0.0 W/m2 CLR
22:05 12.2 °F 4.9 °F 1024.3 in NNW 18.5 mph 18.5 mph 61 % 0.0 in 0.0 W/m2 CLR
22:10 12.1 °F 4.8 °F 1024.3 in NW 16.7 mph 16.7 mph 61 % 0.0 in 0.0 W/m2 CLR
22:15 12.0 °F 4.7 °F 1024.3 in NNW 22.2 mph 22.2 mph 61 % 0.0 in 0.0 W/m2 CLR
22:20 12.0 °F 4.9 °F 1024.6 in NNW 25.9 mph 25.9 mph 62 % 0.0 in 0.0 W/m2 CLR
22:25 11.9 °F 4.8 °F 1024.6 in NNW 18.5 mph 18.5 mph 62 % 0.0 in 0.0 W/m2 CLR
22:30 11.7 °F 4.9 °F 1024.3 in NW 18.5 mph 18.5 mph 63 % 0.0 in 0.0 W/m2 CLR
22:35 11.5 °F 4.9 °F 1024.6 in NW 20.4 mph 20.4 mph 64 % 0.0 in 0.0 W/m2 CLR
22:40 11.4 °F 5.1 °F 1024.6 in WNW 18.5 mph 18.5 mph 65 % 0.0 in 0.0 W/m2 CLR
22:43 11.3 °F 4.9 °F 1024.6 in NW 13.0 mph 13.0 mph 65 % 0.0 in 0.0 W/m2 CLR
22:46 11.2 °F 5.1 °F 1024.6 in WNW 18.5 mph 18.5 mph 66 % 0.0 in 0.0 W/m2 CLR
22:47 11.1 °F 5.0 °F 1024.6 in NW 11.3 mph 11.3 mph 66 % 0.0 in 0.0 W/m2 CLR
22:52 11.1 °F 4.9 °F 1024.6 in WNW 16.7 mph 16.7 mph 66 % 0.0 in 0.0 W/m2 CLR
22:57 11.1 °F 5.0 °F 1024.6 in WNW 14.8 mph 14.8 mph 66 % 0.0 in 0.0 W/m2 CLR
23:01 11.1 °F 5.0 °F 1024.6 in WNW 18.5 mph 18.5 mph 66 % 0.0 in 0.0 W/m2 CLR
23:06 11.0 °F 4.9 °F 1024.6 in NW 18.5 mph 18.5 mph 66 % 0.0 in 0.0 W/m2 CLR
23:11 10.9 °F 5.0 °F 1024.6 in WNW 18.5 mph 18.5 mph 67 % 0.0 in 0.0 W/m2 CLR
23:16 10.8 °F 4.9 °F 1024.6 in WNW 20.4 mph 20.4 mph 67 % 0.0 in 0.0 W/m2 CLR
23:21 10.8 °F 4.7 °F 1024.6 in WNW 16.7 mph 16.7 mph 66 % 0.0 in 0.0 W/m2 CLR
23:26 10.8 °F 4.7 °F 1024.3 in NW 20.4 mph 20.4 mph 66 % 0.0 in 0.0 W/m2 CLR
23:31 10.9 °F 4.8 °F 1024.6 in WNW 18.5 mph 18.5 mph 66 % 0.0 in 0.0 W/m2 CLR
23:36 10.8 °F 4.7 °F 1024.6 in WNW 18.5 mph 18.5 mph 66 % 0.0 in 0.0 W/m2 CLR
23:41 10.8 °F 4.7 °F 1024.6 in WNW 18.5 mph 18.5 mph 66 % 0.0 in 0.0 W/m2 CLR
23:46 10.7 °F 4.6 °F 1024.6 in NW 25.7 mph 25.7 mph 66 % 0.0 in 0.0 W/m2 CLR
23:51 10.8 °F 4.7 °F 1024.6 in West 18.5 mph 18.5 mph 66 % 0.0 in 0.0 W/m2 CLR
23:54 10.9 °F 4.6 °F 1024.6 in West 18.5 mph 18.5 mph 65 % 0.0 in 0.0 W/m2 CLR
23:59 10.9 °F 4.4 °F 1024.6 in WNW 22.2 mph 22.2 mph 64 % 0.0 in 0.0 W/m2 CLR
Lo Temps de Massalio
Compliments of Weather Underground - 1.25 mb